Time;durP1;ratioP1;P1;durP2;ratioP2;P2;SDS_P1;SDS_P2;PMS_P1;PMS_P2;Temp;Humidity;BMP_temperature;BMP_pressure;BME280_temperature;BME280_humidity;BME280_pressure;Samples;Min_cycle;Max_cycle;Signal;HPM_P1;HPM_P2
2023/02/20 00:02:01;;;;;;;;;;;;;;;5.81;90.11;99195.73;106576;1286;22530;-78
2023/02/20 00:04:34;;;;;;;;;;;;;;;5.77;89.95;99204.52;106575;1283;22507;-80
2023/02/20 00:07:06;;;;;;;;;;;;;;;5.71;90.14;99207.80;106610;1286;22630;-78
2023/02/20 00:09:34;;;;;;;;;;;;;;;5.71;89.79;99215.20;106492;1286;22536;-78
2023/02/20 00:12:03;;;;;;;;;;;;;;;5.68;89.65;99222.60;106639;1287;22531;-78
2023/02/20 00:14:31;;;;;;;;;;;;;;;5.62;89.85;99218.16;106601;1287;25340;-78
2023/02/20 00:17:01;;;;;;;;;;;;;;;5.64;89.65;99216.42;106644;1277;22507;-78
2023/02/20 00:19:32;;;;;;;;;;;;;;;5.60;89.24;99224.02;106607;1280;22510;-78
2023/02/20 00:22:03;;;;;;;;;;;;;;;5.60;90.33;99224.00;106621;1287;25400;-78
2023/02/20 00:24:31;;;;;;;;;;;;;;;5.63;89.74;99241.89;106567;1287;24294;-78
2023/02/20 00:27:05;;;;;;;;;;;;;;;5.62;89.02;99251.86;106665;1281;22523;-78
2023/02/20 00:29:34;;;;;;;;;;;;;;;5.60;88.33;99258.73;106572;1287;23018;-78
2023/02/20 00:32:05;;;;;;;;;;;;;;;5.55;88.04;99266.83;106532;1287;22622;-78
2023/02/20 00:34:36;;;;;;;;;;;;;;;5.52;88.32;99267.00;106594;1287;25414;-78
2023/02/20 00:37:07;;;;;;;;;;;;;;;5.50;88.33;99270.45;106602;1280;25280;-78
2023/02/20 00:39:38;;;;;;;;;;;;;;;5.50;88.11;99268.38;106614;1287;25410;-78
2023/02/20 00:42:06;;;;;;;;;;;;;;;5.47;87.51;99266.84;106588;1287;22534;-79
2023/02/20 00:44:38;;;;;;;;;;;;;;;5.44;88.37;99257.39;106428;1287;22591;-78
2023/02/20 00:47:07;;;;;;;;;;;;;;;5.45;88.60;99260.32;106552;1287;22523;-77
2023/02/20 00:49:40;;;;;;;;;;;;;;;5.46;88.46;99257.91;106563;1284;24219;-78
2023/02/20 00:52:14;;;;;;;;;;;;;;;5.44;88.71;99255.84;106569;1287;22513;-78
2023/02/20 00:54:42;;;;;;;;;;;;;;;5.45;89.25;99251.36;106576;1287;22686;-78
2023/02/20 00:57:15;;;;;;;;;;;;;;;5.45;89.11;99259.63;106578;1286;24379;-78
2023/02/20 00:59:47;;;;;;;;;;;;;;;5.42;88.87;99273.38;106586;1287;22563;-77
2023/02/20 01:02:20;;;;;;;;;;;;;;;5.38;88.95;99279.92;106970;1287;22516;-78
2023/02/20 01:04:51;;;;;;;;;;;;;;;5.36;88.65;99286.27;106929;1287;22540;-78
2023/02/20 01:07:23;;;;;;;;;;;;;;;5.34;89.30;99281.82;106567;1280;26537;-78
2023/02/20 01:09:54;;;;;;;;;;;;;;;5.35;90.04;99282.50;106582;1287;23919;-78
2023/02/20 01:12:22;;;;;;;;;;;;;;;5.37;90.35;99282.85;106576;1271;22546;-78
2023/02/20 01:14:53;;;;;;;;;;;;;;;5.38;90.38;99281.30;106571;1276;22523;-78
2023/02/20 01:17:21;;;;;;;;;;;;;;;5.37;90.02;99286.11;106411;1277;23874;-78
2023/02/20 01:19:54;;;;;;;;;;;;;;;5.37;90.01;99293.16;106558;1280;24220;-78
2023/02/20 01:22:30;;;;;;;;;;;;;;;5.36;89.38;99301.40;106579;1286;22506;-78
2023/02/20 01:25:05;;;;;;;;;;;;;;;5.35;89.72;99301.23;106448;1283;22706;-78
2023/02/20 01:27:33;;;;;;;;;;;;;;;5.33;88.91;99306.05;106481;1287;25415;-78
2023/02/20 01:30:03;;;;;;;;;;;;;;;5.32;89.25;99312.07;106543;1280;22570;-78
2023/02/20 01:32:36;;;;;;;;;;;;;;;5.30;89.06;99317.57;106503;1287;23910;-77
2023/02/20 01:35:08;;;;;;;;;;;;;;;5.28;89.76;99329.44;106350;1283;25308;-78
2023/02/20 01:37:39;;;;;;;;;;;;;;;5.27;89.71;99334.59;106543;1287;23440;-79
2023/02/20 01:40:23;;;;;;;;;;;;;;;5.27;88.57;99335.79;106474;1283;25426;-78
2023/02/20 01:43:01;;;;;;;;;;;;;;;5.29;89.56;99330.80;106592;1287;22523;-78
2023/02/20 01:45:34;;;;;;;;;;;;;;;5.33;89.86;99330.98;106556;1284;23293;-78
2023/02/20 01:48:06;;;;;;;;;;;;;;;5.37;89.94;99336.81;106544;1287;24328;-77
2023/02/20 01:50:41;;;;;;;;;;;;;;;5.43;89.88;99343.35;106604;1280;22578;-78
2023/02/20 01:53:20;;;;;;;;;;;;;;;5.45;89.68;99357.80;106562;1287;25542;-77
2023/02/20 01:55:58;;;;;;;;;;;;;;;5.43;89.71;99361.74;106591;1280;22527;-77
2023/02/20 01:58:32;;;;;;;;;;;;;;;5.43;89.57;99359.34;106613;1287;22516;-78
2023/02/20 02:01:07;;;;;;;;;;;;;;;5.42;89.89;99352.98;106779;1282;24472;-78
2023/02/20 02:03:49;;;;;;;;;;;;;;;5.47;90.26;99361.73;106506;1287;22708;-78
2023/02/20 02:06:24;;;;;;;;;;;;;;;5.48;89.85;99356.59;106553;1285;22518;-78
2023/02/20 02:09:05;;;;;;;;;;;;;;;5.52;89.81;99357.95;106516;1287;22518;-78
2023/02/20 02:11:39;;;;;;;;;;;;;;;5.54;89.42;99361.39;106557;1277;25396;-78
2023/02/20 02:14:09;;;;;;;;;;;;;;;5.54;89.56;99361.75;106441;1287;24332;-78
2023/02/20 02:16:47;;;;;;;;;;;;;;;5.58;90.12;99362.09;106593;1280;22513;-79
2023/02/20 02:19:40;;;;;;;;;;;;;;;5.63;90.19;99362.59;106502;1287;25292;-78
2023/02/20 02:22:25;;;;;;;;;;;;;;;5.66;89.71;99364.13;106516;1273;22554;-79
2023/02/20 02:25:19;;;;;;;;;;;;;;;5.66;89.63;99371.71;104360;1287;3128301;-78
2023/02/20 02:28:09;;;;;;;;;;;;;;;5.67;89.46;99378.23;106658;1281;22538;-78
2023/02/20 02:31:05;;;;;;;;;;;;;;;5.66;89.01;99383.73;106500;1287;26675;-78
2023/02/20 02:33:59;;;;;;;;;;;;;;;5.64;88.93;99382.71;106558;1287;22598;-78
2023/02/20 02:37:10;;;;;;;;;;;;;;;5.58;88.68;99387.69;106481;1287;23300;-78
2023/02/20 02:40:03;;;;;;;;;;;;;;;5.56;89.29;99391.83;106494;1281;25476;-77
2023/02/20 02:42:53;;;;;;;;;;;;;;;5.55;89.98;99387.36;106522;1280;24244;-77
2023/02/20 02:45:37;;;;;;;;;;;;;;;5.53;88.97;99390.63;106408;1280;22695;-78
2023/02/20 02:48:30;;;;;;;;;;;;;;;5.49;89.78;99396.98;106471;1282;22515;-78
2023/02/20 02:51:17;;;;;;;;;;;;;;;5.47;90.27;99389.24;106427;1286;25591;-78
2023/02/20 02:54:19;;;;;;;;;;;;;;;5.45;90.45;99394.92;106634;1281;23002;-78
2023/02/20 02:57:14;;;;;;;;;;;;;;;5.42;89.99;99406.60;107443;1287;22495;-77
2023/02/20 02:59:56;;;;;;;;;;;;;;;5.38;88.96;99408.33;107364;1280;22523;-78
2023/02/20 03:02:34;;;;;;;;;;;;;;;5.31;88.90;99421.39;107012;1287;24008;-80
2023/02/20 03:05:09;;;;;;;;;;;;;;;5.25;89.55;99424.30;106477;1283;22524;-79
2023/02/20 03:07:53;;;;;;;;;;;;;;;5.23;90.29;99420.67;106510;1287;23961;-78
2023/02/20 03:10:37;;;;;;;;;;;;;;;5.22;91.17;99421.02;106486;1280;22531;-78
2023/02/20 03:13:17;;;;;;;;;;;;;;;5.20;91.88;99426.68;106572;1287;26225;-77
2023/02/20 03:16:00;;;;;;;;;;;;;;;5.18;92.03;99431.32;106527;1287;24597;-78
2023/02/20 03:18:50;;;;;;;;;;;;;;;5.16;91.21;99441.62;106548;1287;22768;-78
2023/02/20 03:21:41;;;;;;;;;;;;;;;5.11;89.61;99457.08;106584;1281;24287;-78
2023/02/20 03:24:33;;;;;;;;;;;;;;;5.06;88.19;99464.96;106577;1280;22669;-78
2023/02/20 03:28:17;;;;;;;;;;;;;;;5.02;86.69;99485.39;106614;1284;22533;-79
2023/02/20 03:31:35;;;;;;;;;;;;;;;;;;;;;
2023/02/20 03:43:24;;;;;;;;;;;;;;;4.87;83.00;99504.40;106700;1285;23866;-78
2023/02/20 03:46:05;;;;;;;;;;;;;;;4.86;81.35;99508.69;106535;1282;22622;-78
2023/02/20 03:48:49;;;;;;;;;;;;;;;4.90;80.84;99515.93;107002;1276;23820;-80
2023/02/20 03:51:21;;;;;;;;;;;;;;;4.89;81.16;99528.97;106475;1280;22618;-78
2023/02/20 03:53:57;;;;;;;;;;;;;;;4.82;81.74;99540.11;107100;1287;24322;-78
2023/02/20 03:56:34;;;;;;;;;;;;;;;4.71;80.36;99541.41;106680;1287;22940;-78
2023/02/20 03:59:17;;;;;;;;;;;;;;;4.67;78.82;99543.11;107745;1281;23906;-78
2023/02/20 04:01:56;;;;;;;;;;;;;;;4.65;78.22;99548.08;108300;1279;22568;-79
2023/02/20 04:04:32;;;;;;;;;;;;;;;4.62;77.23;99552.70;108776;1287;25417;-79
2023/02/20 04:07:04;;;;;;;;;;;;;;;4.58;76.41;99554.90;107501;1284;26052;-79
2023/02/20 04:09:35;;;;;;;;;;;;;;;4.52;76.38;99556.40;106581;1287;23736;-78
2023/02/20 04:12:08;;;;;;;;;;;;;;;4.50;76.25;99562.40;106656;1279;22512;-78
2023/02/20 04:14:39;;;;;;;;;;;;;;;4.46;75.70;99568.71;106462;1287;22541;-78
2023/02/20 04:17:13;;;;;;;;;;;;;;;4.42;75.00;99581.05;106490;1287;22682;-79
2023/02/20 04:19:41;;;;;;;;;;;;;;;4.38;75.05;99585.14;106573;1287;22552;-78
2023/02/20 04:22:18;;;;;;;;;;;;;;;4.32;73.46;99591.79;106526;1280;25312;-78
2023/02/20 04:25:02;;;;;;;;;;;;;;;4.30;73.52;99596.92;106607;1283;22506;-78
2023/02/20 04:27:31;;;;;;;;;;;;;;;4.27;73.25;99601.17;106532;1282;25247;-78
2023/02/20 04:30:00;;;;;;;;;;;;;;;4.26;73.99;99608.02;106625;1287;22557;-79
2023/02/20 04:32:28;;;;;;;;;;;;;;;4.22;72.79;99606.98;106561;1280;23893;-81
2023/02/20 04:35:02;;;;;;;;;;;;;;;4.20;71.98;99621.89;106546;1286;25385;-78
2023/02/20 04:37:33;;;;;;;;;;;;;;;4.19;72.38;99626.34;106506;1286;22540;-78
2023/02/20 04:40:01;;;;;;;;;;;;;;;4.18;72.03;99629.08;106478;1281;22993;-78
2023/02/20 04:42:37;;;;;;;;;;;;;;;4.15;70.45;99626.83;106984;1287;22527;-79
2023/02/20 04:45:05;;;;;;;;;;;;;;;4.13;70.04;99627.98;106518;1279;22632;-78
2023/02/20 04:47:42;;;;;;;;;;;;;;;4.10;69.93;99635.00;106410;1286;24187;-78
2023/02/20 04:50:24;;;;;;;;;;;;;;;4.07;70.64;99631.71;106505;1287;22538;-79
2023/02/20 04:53:04;;;;;;;;;;;;;;;4.04;71.31;99634.08;106527;1287;24223;-78
2023/02/20 04:55:33;;;;;;;;;;;;;;;3.99;71.66;99637.30;106465;1280;25290;-78
2023/02/20 04:58:08;;;;;;;;;;;;;;;3.95;71.20;99643.43;106547;1287;23094;-78
2023/02/20 05:00:49;;;;;;;;;;;;;;;3.91;70.44;99649.04;106484;1281;22644;-78
2023/02/20 05:03:17;;;;;;;;;;;;;;;3.88;71.19;99661.71;106477;1287;22565;-78
2023/02/20 05:05:48;;;;;;;;;;;;;;;3.84;70.01;99670.42;106516;1287;22764;-78
2023/02/20 05:08:17;;;;;;;;;;;;;;;3.82;69.63;99673.64;106565;1281;23100;-78
2023/02/20 05:10:50;;;;;;;;;;;;;;;3.79;71.36;99673.78;106516;1276;22564;-78
2023/02/20 05:13:21;;;;;;;;;;;;;;;3.74;72.51;99677.15;106538;1287;22552;-78
2023/02/20 05:15:49;;;;;;;;;;;;;;;3.72;72.46;99686.05;106507;1287;25409;-78
2023/02/20 05:18:26;;;;;;;;;;;;;;;3.69;74.72;99697.67;106534;1283;22711;-78
2023/02/20 05:23:57;;;;;;;;;;;;;;;3.62;75.61;99705.30;106482;1287;22510;-78
2023/02/20 05:26:33;;;;;;;;;;;;;;;3.59;76.64;99712.10;106517;1280;23477;-79
2023/02/20 05:29:08;;;;;;;;;;;;;;;3.54;76.62;99715.47;106382;1287;22543;-78
2023/02/20 05:31:40;;;;;;;;;;;;;;;3.50;77.16;99714.89;106486;1283;22513;-78
2023/02/20 05:34:14;;;;;;;;;;;;;;;3.47;77.58;99714.00;107783;1274;22669;-78
2023/02/20 05:36:46;;;;;;;;;;;;;;;3.48;77.93;99717.95;106482;1287;22656;-78
2023/02/20 05:39:14;;;;;;;;;;;;;;;3.46;78.17;99721.70;106599;1285;25481;-78
2023/02/20 05:41:45;;;;;;;;;;;;;;;3.45;78.52;99737.11;106667;1284;22564;-78
2023/02/20 05:44:16;;;;;;;;;;;;;;;3.43;79.20;99754.58;106607;1277;22837;-78
2023/02/20 05:46:50;;;;;;;;;;;;;;;3.43;78.96;99769.65;106767;1287;22496;-78
2023/02/20 05:49:21;;;;;;;;;;;;;;;3.42;78.81;99774.94;106872;1287;22714;-79
2023/02/20 05:51:57;;;;;;;;;;;;;;;3.40;79.22;99775.09;106996;1287;22621;-78
2023/02/20 05:54:28;;;;;;;;;;;;;;;3.38;79.74;99781.21;107047;1284;24253;-78
2023/02/20 05:56:58;;;;;;;;;;;;;;;3.36;80.40;99791.98;107034;1287;22558;-78
2023/02/20 05:59:32;;;;;;;;;;;;;;;3.34;80.76;99794.52;106938;1287;23433;-78
2023/02/20 06:02:01;;;;;;;;;;;;;;;3.33;80.78;99800.34;107143;1287;26639;-79
2023/02/20 06:04:31;;;;;;;;;;;;;;;3.32;80.86;99791.42;107011;1280;22841;-79
2023/02/20 06:07:09;;;;;;;;;;;;;;;3.33;81.54;99795.89;106890;1287;22542;-78
2023/02/20 06:09:48;;;;;;;;;;;;;;;3.33;80.49;99800.01;107136;1281;22523;-78
2023/02/20 06:12:26;;;;;;;;;;;;;;;3.32;80.84;99806.51;106789;1276;24149;-78
2023/02/20 06:15:01;;;;;;;;;;;;;;;3.34;80.58;99810.48;106696;1279;23449;-78
2023/02/20 06:17:40;;;;;;;;;;;;;;;3.38;80.07;99810.35;106691;1280;22555;-79
2023/02/20 06:20:17;;;;;;;;;;;;;;;3.44;80.37;99813.52;106715;1284;25352;-79
2023/02/20 06:22:49;;;;;;;;;;;;;;;3.50;80.34;99813.79;106635;1287;22510;-78
2023/02/20 06:25:19;;;;;;;;;;;;;;;3.59;80.37;99818.02;106700;1280;22526;-79
2023/02/20 06:27:58;;;;;;;;;;;;;;;3.68;80.92;99823.14;106722;1287;22520;-79
2023/02/20 06:30:38;;;;;;;;;;;;;;;3.75;80.03;99824.27;106687;1281;22560;-78
2023/02/20 06:33:18;;;;;;;;;;;;;;;3.83;79.73;99825.41;106803;1286;23043;-78
2023/02/20 06:35:49;;;;;;;;;;;;;;;3.90;81.02;99824.14;106741;1276;24016;-80
2023/02/20 06:38:26;;;;;;;;;;;;;;;3.93;80.93;99825.20;106666;1283;22539;-78
2023/02/20 06:40:56;;;;;;;;;;;;;;;3.99;80.63;99826.49;106641;1287;22572;-79
2023/02/20 06:43:28;;;;;;;;;;;;;;;4.08;80.36;99831.39;106640;1287;22462;-78
2023/02/20 06:45:59;;;;;;;;;;;;;;;4.17;79.73;99835.64;106603;1281;25343;-77
2023/02/20 06:48:46;;;;;;;;;;;;;;;4.22;79.14;99839.65;106601;1284;22635;-79
2023/02/20 06:51:22;;;;;;;;;;;;;;;4.29;78.38;99845.23;106626;1280;22643;-80
2023/02/20 06:53:57;;;;;;;;;;;;;;;4.35;77.67;99851.14;106537;1287;25437;-78
2023/02/20 06:56:34;;;;;;;;;;;;;;;4.38;77.04;99855.11;106553;1281;22542;-78
2023/02/20 06:59:16;;;;;;;;;;;;;;;4.42;78.28;99849.83;106934;1287;22514;-81
2023/02/20 07:02:02;;;;;;;;;;;;;;;4.44;76.84;99847.97;108288;1279;25265;-81
2023/02/20 07:04:40;;;;;;;;;;;;;;;4.51;76.05;99844.97;108385;1287;22531;-81
2023/02/20 07:07:22;;;;;;;;;;;;;;;4.59;74.85;99858.27;108634;1282;22552;-84
2023/02/20 07:10:28;;;;;;;;;;;;;;;4.66;73.73;99858.18;109420;1260;22559;-84
2023/02/20 07:13:15;;;;;;;;;;;;;;;4.73;72.13;99852.93;108996;1278;22854;-82
2023/02/20 07:15:57;;;;;;;;;;;;;;;4.77;72.07;99856.76;109261;1278;22945;-82
2023/02/20 07:18:45;;;;;;;;;;;;;;;4.84;71.76;99860.09;108381;1278;22655;-80
2023/02/20 07:21:30;;;;;;;;;;;;;;;4.88;72.27;99859.80;109142;1284;22522;-83
2023/02/20 07:24:11;;;;;;;;;;;;;;;4.95;72.88;99863.81;109038;1278;22496;-85
2023/02/20 07:26:45;;;;;;;;;;;;;;;5.01;74.78;99866.27;109533;1283;22554;-85
2023/02/20 07:29:31;;;;;;;;;;;;;;;5.01;73.33;99865.23;109207;1278;26002;-80
2023/02/20 07:32:23;;;;;;;;;;;;;;;5.05;74.95;99864.08;107886;1278;22506;-79
2023/02/20 07:35:02;;;;;;;;;;;;;;;5.08;74.49;99861.00;107799;1280;22576;-79
2023/02/20 07:37:46;;;;;;;;;;;;;;;5.12;75.52;99856.25;107051;1278;22580;-79
2023/02/20 07:40:21;;;;;;;;;;;;;;;5.08;74.45;99851.38;107313;1284;22802;-80
2023/02/20 07:43:23;;;;;;;;;;;;;;;5.08;75.55;99848.83;107656;1284;22514;-79
2023/02/20 07:46:07;;;;;;;;;;;;;;;5.01;75.81;99855.96;107666;1281;22533;-80
2023/02/20 07:48:48;;;;;;;;;;;;;;;4.95;75.90;99862.62;107281;1282;25572;-80
2023/02/20 07:51:27;;;;;;;;;;;;;;;4.98;76.22;99866.42;107173;1284;23384;-82
2023/02/20 07:54:13;;;;;;;;;;;;;;;4.99;75.62;99885.49;107308;1278;23938;-80
2023/02/20 07:56:47;;;;;;;;;;;;;;;4.93;75.16;99891.45;107264;1267;22515;-79
2023/02/20 07:59:20;;;;;;;;;;;;;;;4.91;75.86;99894.01;107468;1284;22555;-78
2023/02/20 08:01:54;;;;;;;;;;;;;;;4.91;76.19;99892.12;107818;1278;26066;-81
2023/02/20 08:04:28;;;;;;;;;;;;;;;4.92;75.97;99897.63;107537;1281;25217;-79
2023/02/20 08:07:17;;;;;;;;;;;;;;;4.91;75.75;99892.63;108210;1279;24279;-81
2023/02/20 08:09:57;;;;;;;;;;;;;;;4.88;76.15;99892.25;107796;1277;22626;-80
2023/02/20 08:12:29;;;;;;;;;;;;;;;4.93;76.36;99888.02;108016;1284;22526;-80
2023/02/20 08:15:09;;;;;;;;;;;;;;;5.01;74.52;99882.77;107504;1278;22471;-81
2023/02/20 08:17:43;;;;;;;;;;;;;;;5.08;74.63;99883.35;108206;1280;22532;-83
2023/02/20 08:20:23;;;;;;;;;;;;;;;5.14;74.80;99879.46;107610;1278;22536;-79
2023/02/20 08:22:57;;;;;;;;;;;;;;;5.21;73.90;99874.38;107587;1280;25221;-80
2023/02/20 08:25:28;;;;;;;;;;;;;;;5.26;73.11;99873.73;107584;1280;22587;-80
2023/02/20 08:28:06;;;;;;;;;;;;;;;5.32;71.82;99872.06;107265;1281;22594;-79
2023/02/20 08:30:40;;;;;;;;;;;;;;;5.35;72.27;99870.37;107459;1280;22630;-80
2023/02/20 08:33:12;;;;;;;;;;;;;;;5.37;71.92;99873.31;107365;1278;25062;-79
2023/02/20 08:35:41;;;;;;;;;;;;;;;5.42;71.22;99872.65;107299;1280;22555;-80
2023/02/20 08:38:32;;;;;;;;;;;;;;;5.49;70.60;99872.54;107277;1285;24274;-79
2023/02/20 08:41:05;;;;;;;;;;;;;;;5.52;69.44;99867.41;107372;1282;23001;-78
2023/02/20 08:43:42;;;;;;;;;;;;;;;5.58;69.92;99860.75;107347;1278;25383;-79
2023/02/20 08:46:12;;;;;;;;;;;;;;;5.67;69.26;99863.38;107487;1278;25474;-79
2023/02/20 08:48:47;;;;;;;;;;;;;;;5.72;69.52;99865.14;107315;1278;22537;-79
2023/02/20 08:51:25;;;;;;;;;;;;;;;5.77;69.10;99871.20;107972;1278;22586;-79
2023/02/20 08:53:53;;;;;;;;;;;;;;;5.83;69.64;99868.15;108528;1285;22535;-80
2023/02/20 08:56:28;;;;;;;;;;;;;;;5.88;69.74;99861.99;107896;1286;22553;-79
2023/02/20 08:59:02;;;;;;;;;;;;;;;5.91;68.22;99860.11;108485;1278;22535;-80
2023/02/20 09:01:36;;;;;;;;;;;;;;;5.91;67.06;99861.66;108483;1278;24671;-79
2023/02/20 09:04:11;;;;;;;;;;;;;;;5.92;67.28;99858.75;107531;1278;22469;-80
2023/02/20 09:06:52;;;;;;;;;;;;;;;5.94;67.36;99852.58;107427;1271;22803;-79
2023/02/20 09:09:29;;;;;;;;;;;;;;;5.98;67.35;99853.64;107522;1278;22567;-79
2023/02/20 09:12:03;;;;;;;;;;;;;;;6.03;66.98;99847.81;107415;1278;22509;-79
2023/02/20 09:14:37;;;;;;;;;;;;;;;6.05;66.65;99842.83;107138;1278;25264;-79
2023/02/20 09:17:09;;;;;;;;;;;;;;;6.05;66.30;99840.77;107170;1278;22521;-79
2023/02/20 09:19:51;;;;;;;;;;;;;;;6.06;66.43;99842.34;107428;1285;25274;-79
2023/02/20 09:22:28;;;;;;;;;;;;;;;6.09;65.99;99845.27;107214;1278;22487;-78
2023/02/20 09:25:03;;;;;;;;;;;;;;;6.10;65.89;99840.29;107418;1278;22516;-80
2023/02/20 09:27:42;;;;;;;;;;;;;;;6.14;66.12;99838.23;107252;1278;22528;-79
2023/02/20 09:30:18;;;;;;;;;;;;;;;6.20;65.71;99840.84;107260;1278;22579;-79
2023/02/20 09:32:54;;;;;;;;;;;;;;;6.22;65.00;99833.29;107904;1280;22515;-79
2023/02/20 09:35:29;;;;;;;;;;;;;;;6.29;65.25;99832.96;107920;1274;23763;-88
2023/02/20 09:38:06;;;;;;;;;;;;;;;6.30;65.23;99829.36;108180;1279;22539;-79
2023/02/20 09:40:40;;;;;;;;;;;;;;;6.37;65.41;99835.06;107216;1279;22531;-78
2023/02/20 09:43:14;;;;;;;;;;;;;;;6.42;65.29;99839.04;107325;1277;22880;-79
2023/02/20 09:45:56;;;;;;;;;;;;;;;6.49;64.92;99841.65;107030;1285;23369;-79
2023/02/20 09:48:41;;;;;;;;;;;;;;;6.52;64.55;99837.00;106997;1278;22486;-79
2023/02/20 09:51:17;;;;;;;;;;;;;;;6.54;64.58;99826.85;107117;1285;22552;-79
2023/02/20 09:54:04;;;;;;;;;;;;;;;6.58;65.00;99821.88;107077;1285;24590;-79
2023/02/20 09:56:49;;;;;;;;;;;;;;;6.63;64.58;99822.23;107140;1282;22502;-79
2023/02/20 09:59:26;;;;;;;;;;;;;;;6.65;63.43;99825.34;106985;1278;22600;-79
2023/02/20 10:02:04;;;;;;;;;;;;;;;6.65;63.39;99821.02;107086;1278;22507;-79
2023/02/20 10:04:51;;;;;;;;;;;;;;;6.68;63.20;99818.96;107123;1278;23085;-80
2023/02/20 10:07:40;;;;;;;;;;;;;;;6.74;64.08;99821.56;107814;1278;22587;-80
2023/02/20 10:10:32;;;;;;;;;;;;;;;6.80;63.87;99822.78;108343;1280;22529;-80
2023/02/20 10:13:27;;;;;;;;;;;;;;;6.82;63.75;99811.76;107039;1285;22633;-81
2023/02/20 10:16:07;;;;;;;;;;;;;;;6.87;63.50;99812.63;106964;1285;24229;-79
2023/02/20 10:18:47;;;;;;;;;;;;;;;6.95;62.87;99803.34;109802;1274;23295;-80
2023/02/20 10:21:39;;;;;;;;;;;;;;;6.97;62.58;99797.13;107060;1281;25377;-79
2023/02/20 10:24:12;;;;;;;;;;;;;;;7.02;62.83;99798.34;107116;1283;24215;-79
2023/02/20 10:26:46;;;;;;;;;;;;;;;7.09;62.06;99790.94;107227;1285;25430;-79
2023/02/20 10:29:33;;;;;;;;;;;;;;;7.13;61.39;99778.52;107419;1278;25305;-79
2023/02/20 10:32:15;;;;;;;;;;;;;;;7.21;62.64;99763.70;107262;1278;22651;-79
2023/02/20 10:35:03;;;;;;;;;;;;;;;7.31;61.75;99755.23;107269;1285;24205;-79
2023/02/20 10:37:45;;;;;;;;;;;;;;;7.39;61.23;99752.29;107681;1272;22549;-79
2023/02/20 10:40:34;;;;;;;;;;;;;;;7.43;60.59;99746.59;107502;1278;22758;-79
2023/02/20 10:43:14;;;;;;;;;;;;;;;7.47;60.10;99740.73;107444;1285;24577;-77
2023/02/20 10:46:19;;;;;;;;;;;;;;;7.52;59.38;99735.01;107607;1278;22526;-79
2023/02/20 10:49:01;;;;;;;;;;;;;;;7.56;58.31;99727.92;107291;1284;22550;-80
2023/02/20 10:51:38;;;;;;;;;;;;;;;7.61;58.70;99720.84;107039;1284;22578;-79
2023/02/20 10:54:27;;;;;;;;;;;;;;;7.70;60.00;99715.12;107795;1271;22513;-79
2023/02/20 10:57:56;;;;;;;;;;;;;;;7.81;59.11;99707.30;107132;1283;22542;-79
2023/02/20 11:00:39;;;;;;;;;;;;;;;7.94;59.25;99706.38;107080;1284;22507;-79
2023/02/20 11:03:25;;;;;;;;;;;;;;;8.04;57.03;99707.38;107383;1280;25339;-78
2023/02/20 11:06:14;;;;;;;;;;;;;;;8.14;55.09;99701.29;107226;1279;25253;-83
2023/02/20 11:08:59;;;;;;;;;;;;;;;8.27;54.41;99702.25;107334;1279;25278;-79
2023/02/20 11:11:46;;;;;;;;;;;;;;;8.37;53.77;99699.26;107240;1282;25420;-79
2023/02/20 11:14:34;;;;;;;;;;;;;;;8.51;54.30;99698.67;107347;1265;22524;-79
2023/02/20 11:17:27;;;;;;;;;;;;;;;8.65;53.37;99695.98;107261;1285;24402;-79
2023/02/20 11:20:26;;;;;;;;;;;;;;;8.71;53.03;99696.61;106990;1278;22501;-80
2023/02/20 11:23:09;;;;;;;;;;;;;;;8.80;51.42;99689.98;107186;1278;22565;-79
2023/02/20 11:25:55;;;;;;;;;;;;;;;8.97;49.04;99689.15;107039;1285;23028;-79
2023/02/20 11:28:39;;;;;;;;;;;;;;;9.04;46.78;99687.17;106887;1285;22580;-79
2023/02/20 11:31:25;;;;;;;;;;;;;;;9.12;48.79;99681.05;106988;1285;22519;-79
2023/02/20 11:34:04;;;;;;;;;;;;;;;9.18;46.49;99675.98;106933;1285;22516;-79
2023/02/20 11:36:45;;;;;;;;;;;;;;;9.24;47.56;99664.15;106950;1284;22588;-79
2023/02/20 11:39:34;;;;;;;;;;;;;;;9.35;46.96;99657.11;107012;1274;23967;-79
2023/02/20 11:42:14;;;;;;;;;;;;;;;9.39;44.37;99651.20;107029;1285;25526;-79
2023/02/20 11:45:07;;;;;;;;;;;;;;;9.46;43.81;99647.65;107149;1285;24216;-80
2023/02/20 11:48:00;;;;;;;;;;;;;;;9.53;45.25;99644.79;107072;1286;22602;-81
2023/02/20 11:50:48;;;;;;;;;;;;;;;9.56;45.97;99642.85;107027;1285;22947;-79
2023/02/20 11:53:24;;;;;;;;;;;;;;;9.67;45.94;99643.59;106958;1271;22532;-78
2023/02/20 11:56:11;;;;;;;;;;;;;;;9.79;44.22;99647.07;106978;1286;22626;-78
2023/02/20 11:58:48;;;;;;;;;;;;;;;9.90;41.16;99646.40;106963;1285;25622;-80
2023/02/20 12:01:33;;;;;;;;;;;;;;;10.02;45.66;99640.70;107053;1285;24322;-78
2023/02/20 12:04:25;;;;;;;;;;;;;;;10.12;47.38;99636.38;107085;1271;22543;-79
2023/02/20 12:06:59;;;;;;;;;;;;;;;10.22;47.09;99628.11;106938;1278;22508;-78
2023/02/20 12:09:31;;;;;;;;;;;;;;;10.35;46.71;99630.20;107007;1285;25649;-79
2023/02/20 12:11:59;;;;;;;;;;;;;;;10.32;47.09;99623.13;107103;1285;22583;-80
2023/02/20 12:14:30;;;;;;;;;;;;;;;10.38;46.53;99633.95;107134;1285;22581;-79
2023/02/20 12:17:18;;;;;;;;;;;;;;;10.49;45.84;99646.61;107283;1274;22525;-80
2023/02/20 12:20:17;;;;;;;;;;;;;;;10.56;46.29;99638.20;107765;1285;22497;-79
2023/02/20 12:22:57;;;;;;;;;;;;;;;10.56;46.84;99637.48;107890;1281;22525;-80
2023/02/20 12:25:45;;;;;;;;;;;;;;;10.69;48.17;99641.61;107623;1285;23386;-79
2023/02/20 12:28:32;;;;;;;;;;;;;;;10.74;47.20;99640.83;107589;1285;23888;-79
2023/02/20 12:31:45;;;;;;;;;;;;;;;10.90;46.81;99628.76;107168;1285;26054;-78
2023/02/20 12:34:24;;;;;;;;;;;;;;;10.86;47.09;99616.52;106717;1291;23412;-78
2023/02/20 12:37:21;;;;;;;;;;;;;;;10.92;47.20;99612.77;106712;1289;22555;-79
2023/02/20 12:40:06;;;;;;;;;;;;;;;10.83;45.79;99615.00;107469;1285;22551;-79
2023/02/20 12:43:06;;;;;;;;;;;;;;;10.82;41.23;99627.34;107158;1278;23494;-79
2023/02/20 12:45:56;;;;;;;;;;;;;;;10.64;34.45;99624.17;106981;1285;22532;-79
2023/02/20 12:48:33;;;;;;;;;;;;;;;10.47;33.70;99620.46;107138;1283;22507;-79
2023/02/20 12:51:08;;;;;;;;;;;;;;;10.46;33.47;99614.77;107607;1281;22476;-79
2023/02/20 12:53:43;;;;;;;;;;;;;;;10.49;33.04;99614.02;107085;1285;22857;-80
2023/02/20 12:56:35;;;;;;;;;;;;;;;10.47;34.63;99611.30;107096;1285;22552;-79
2023/02/20 12:59:07;;;;;;;;;;;;;;;10.49;33.88;99615.41;107032;1285;23969;-79
2023/02/20 13:01:35;;;;;;;;;;;;;;;10.59;33.31;99605.89;107002;1285;22514;-79
2023/02/20 13:04:17;;;;;;;;;;;;;;;10.69;33.45;99599.65;107082;1281;26107;-80
2023/02/20 13:06:53;;;;;;;;;;;;;;;10.84;37.52;99590.73;107298;1282;25536;-79
2023/02/20 13:09:30;;;;;;;;;;;;;;;10.75;41.68;99583.24;107252;1274;22660;-79
2023/02/20 13:12:05;;;;;;;;;;;;;;;10.80;42.87;99576.23;107167;1285;22503;-80
2023/02/20 13:14:41;;;;;;;;;;;;;;;10.74;42.96;99573.04;107905;1285;24196;-79
2023/02/20 13:17:35;;;;;;;;;;;;;;;10.60;43.99;99576.94;107067;1285;22580;-79
2023/02/20 13:20:46;;;;;;;;;;;;;;;10.56;43.58;99572.31;106977;1278;25426;-79
2023/02/20 13:23:14;;;;;;;;;;;;;;;10.32;42.59;99570.78;106944;1285;22552;-80
2023/02/20 13:25:47;;;;;;;;;;;;;;;10.30;43.74;99576.04;106964;1285;24588;-79
2023/02/20 13:28:34;;;;;;;;;;;;;;;10.32;40.48;99579.64;106960;1284;22516;-80
2023/02/20 13:31:14;;;;;;;;;;;;;;;10.29;39.28;99576.03;106949;1278;22544;-79
2023/02/20 13:34:09;;;;;;;;;;;;;;;10.16;37.19;99582.29;106920;1278;22463;-79
2023/02/20 13:36:45;;;;;;;;;;;;;;;10.07;36.71;99590.23;107051;1265;22657;-79
2023/02/20 13:39:42;;;;;;;;;;;;;;;9.86;37.30;99580.31;107066;1274;22509;-80
2023/02/20 13:42:31;;;;;;;;;;;;;;;9.93;37.63;99580.55;107197;1285;22462;-79
2023/02/20 13:44:59;;;;;;;;;;;;;;;9.83;38.36;99580.88;107329;1278;22549;-81
2023/02/20 13:47:38;;;;;;;;;;;;;;;9.84;38.59;99592.11;107378;1284;22554;-79
2023/02/20 13:50:30;;;;;;;;;;;;;;;9.77;38.13;99584.95;107371;1285;22589;-79
2023/02/20 13:53:05;;;;;;;;;;;;;;;9.68;39.03;99586.80;107250;1285;22640;-79
2023/02/20 13:55:40;;;;;;;;;;;;;;;9.57;39.82;99589.03;107096;1285;22570;-80
2023/02/20 13:58:13;;;;;;;;;;;;;;;9.54;40.02;99582.65;107033;1285;24271;-79
2023/02/20 14:00:50;;;;;;;;;;;;;;;9.58;40.95;99581.05;107180;1278;22533;-79